Time;durP1;ratioP1;P1;durP2;ratioP2;P2;SDS_P1;SDS_P2;PMS_P1;PMS_P2;Temp;Humidity;BMP_temperature;BMP_pressure;BME280_temperature;BME280_humidity;BME280_pressure;Samples;Min_cycle;Max_cycle;Signal;HPM_P1;HPM_P2
2023/10/23 00:00:15;;;;;;;1.13;0.70;;;10.50;90.80;;;;;;5014222;28;20038;-77
2023/10/23 00:02:41;;;;;;;1.08;0.90;;;10.50;90.80;;;;;;4980448;28;20502;-77
2023/10/23 00:05:07;;;;;;;1.00;0.90;;;10.40;90.80;;;;;;5014149;28;20050;-77
2023/10/23 00:07:33;;;;;;;0.88;0.80;;;10.40;90.90;;;;;;4980054;28;20033;-77
2023/10/23 00:09:59;;;;;;;1.63;0.90;;;10.40;90.90;;;;;;4996350;28;20026;-76
2023/10/23 00:12:25;;;;;;;0.98;0.70;;;10.40;90.90;;;;;;4996338;28;20088;-76
2023/10/23 00:14:50;;;;;;;0.80;0.77;;;10.30;91.00;;;;;;5012639;28;20065;-76
2023/10/23 00:17:16;;;;;;;1.08;0.88;;;10.30;91.00;;;;;;4996302;28;20073;-76
2023/10/23 00:19:42;;;;;;;1.88;1.00;;;10.30;91.00;;;;;;5014105;28;20034;-77
2023/10/23 00:22:07;;;;;;;0.70;0.70;;;10.30;91.00;;;;;;5013949;28;20038;-76
2023/10/23 00:24:33;;;;;;;0.65;0.65;;;10.20;91.00;;;;;;4996177;28;20034;-76
2023/10/23 00:26:59;;;;;;;1.33;0.93;;;10.20;91.00;;;;;;4979981;28;20034;-76
2023/10/23 00:29:25;;;;;;;0.90;0.77;;;10.20;91.10;;;;;;4978901;28;20038;-76
2023/10/23 00:32:01;;;;;;;1.10;1.00;;;10.20;91.00;;;;;;4978751;28;20063;-76
2023/10/23 00:34:27;;;;;;;0.73;0.60;;;10.10;91.00;;;;;;4960662;28;20096;-76
2023/10/23 00:36:56;;;;;;;1.30;0.90;;;10.10;91.00;;;;;;4975237;28;20562;-76
2023/10/23 00:39:22;;;;;;;1.42;1.10;;;10.00;91.00;;;;;;4936317;29;20602;-76
2023/10/23 00:41:47;;;;;;;0.75;0.75;;;10.00;91.10;;;;;;4936716;29;20127;-76
2023/10/23 00:44:14;;;;;;;0.95;0.85;;;10.00;91.10;;;;;;4952944;29;20488;-76
2023/10/23 00:46:40;;;;;;;0.82;0.77;;;9.90;91.10;;;;;;4937006;29;20036;-76
2023/10/23 00:49:05;;;;;;;0.80;0.80;;;9.90;91.40;;;;;;4936777;29;20090;-76
2023/10/23 00:51:32;;;;;;;0.75;0.70;;;9.90;91.10;;;;;;4953116;29;20488;-76
2023/10/23 00:53:58;;;;;;;0.82;0.80;;;9.90;91.10;;;;;;4937001;29;20510;-76
2023/10/23 00:56:26;;;;;;;1.23;0.75;;;9.90;91.10;;;;;;4936716;29;20606;-76
2023/10/23 00:58:51;;;;;;;0.73;0.73;;;9.80;91.10;;;;;;4937267;29;20263;-76
2023/10/23 01:01:17;;;;;;;1.05;0.80;;;9.80;91.10;;;;;;4936776;29;20118;-77
2023/10/23 01:03:43;;;;;;;0.80;0.80;;;9.80;91.10;;;;;;4952580;29;20566;-76
2023/10/23 01:06:09;;;;;;;0.95;0.82;;;9.80;91.20;;;;;;4918241;29;20067;-76
2023/10/23 01:08:36;;;;;;;1.10;0.80;;;9.70;91.10;;;;;;4953215;29;20039;-76
2023/10/23 01:11:02;;;;;;;0.77;0.73;;;9.70;91.20;;;;;;4986592;28;20513;-76
2023/10/23 01:13:28;;;;;;;0.90;0.80;;;9.70;91.20;;;;;;5013161;28;20036;-76
2023/10/23 01:15:54;;;;;;;1.00;0.77;;;9.70;91.20;;;;;;4995319;28;20041;-76
2023/10/23 01:18:20;;;;;;;0.82;0.70;;;9.70;91.20;;;;;;4978268;28;20049;-77
2023/10/23 01:20:46;;;;;;;0.70;0.70;;;9.70;91.20;;;;;;5012622;28;20038;-77
2023/10/23 01:23:12;;;;;;;0.73;0.70;;;9.70;91.10;;;;;;4995102;28;20038;-77
2023/10/23 01:25:38;;;;;;;0.98;0.93;;;9.70;91.10;;;;;;4994911;28;20149;-77
2023/10/23 01:28:04;;;;;;;0.60;0.60;;;9.70;91.20;;;;;;5012745;28;20489;-76
2023/10/23 01:30:30;;;;;;;0.70;0.70;;;9.60;91.20;;;;;;4993397;28;20031;-77
2023/10/23 01:32:56;;;;;;;0.70;0.55;;;9.70;91.20;;;;;;4993901;28;20161;-77
2023/10/23 01:35:22;;;;;;;0.70;0.70;;;9.70;91.20;;;;;;4994326;28;20489;-77
2023/10/23 01:37:48;;;;;;;1.23;0.90;;;9.70;91.20;;;;;;4994191;28;20045;-76
2023/10/23 01:40:14;;;;;;;1.58;1.08;;;9.60;91.10;;;;;;5010085;28;20126;-78
2023/10/23 01:42:41;;;;;;;1.45;0.90;;;9.70;91.20;;;;;;5011757;28;20076;-77
2023/10/23 01:45:07;;;;;;;1.48;1.00;;;9.70;91.10;;;;;;4994103;28;20038;-76
2023/10/23 01:47:33;;;;;;;1.00;0.90;;;9.70;91.10;;;;;;5010382;28;20501;-77
2023/10/23 01:49:59;;;;;;;0.82;0.80;;;9.70;91.10;;;;;;4993496;28;20035;-77
2023/10/23 01:52:24;;;;;;;1.55;0.93;;;9.70;91.10;;;;;;4993991;28;20363;-76
2023/10/23 01:54:52;;;;;;;0.98;0.88;;;9.80;91.10;;;;;;4977725;28;20386;-77
2023/10/23 01:57:18;;;;;;;0.70;0.70;;;9.80;91.00;;;;;;5004039;28;20034;-77
2023/10/23 01:59:44;;;;;;;1.00;0.70;;;9.90;91.00;;;;;;4994536;28;20042;-76
2023/10/23 02:02:10;;;;;;;1.35;0.90;;;9.90;91.00;;;;;;5012400;28;20046;-76
2023/10/23 02:04:38;;;;;;;1.05;0.80;;;9.90;91.00;;;;;;5010366;28;20049;-77
2023/10/23 02:07:04;;;;;;;1.70;1.00;;;9.90;90.90;;;;;;4994406;28;20035;-77
2023/10/23 02:09:31;;;;;;;1.00;0.88;;;10.00;91.00;;;;;;5009642;28;20497;-77
2023/10/23 02:11:57;;;;;;;0.73;0.63;;;10.00;90.90;;;;;;4976868;28;20038;-77
2023/10/23 02:14:23;;;;;;;0.98;0.80;;;10.00;90.90;;;;;;4994786;28;20477;-76
2023/10/23 02:16:48;;;;;;;1.55;1.00;;;10.10;90.90;;;;;;5012429;28;20486;-77
2023/10/23 02:19:14;;;;;;;1.17;0.90;;;10.10;90.90;;;;;;5012063;28;20084;-77
2023/10/23 02:21:40;;;;;;;1.20;0.90;;;10.10;90.90;;;;;;4994202;28;20054;-77
2023/10/23 02:24:06;;;;;;;0.80;0.68;;;10.20;90.90;;;;;;4994066;28;20475;-76
2023/10/23 02:26:31;;;;;;;1.33;0.80;;;10.10;90.90;;;;;;5011977;28;20117;-76
2023/10/23 02:28:57;;;;;;;1.00;0.90;;;10.20;90.90;;;;;;4994617;28;20037;-76
2023/10/23 02:31:23;;;;;;;0.73;0.73;;;10.20;90.90;;;;;;4993829;28;20461;-76
2023/10/23 02:33:49;;;;;;;1.45;0.80;;;10.20;90.80;;;;;;4993318;28;20045;-76
2023/10/23 02:36:15;;;;;;;0.60;0.60;;;10.20;90.80;;;;;;4976375;28;20135;-77
2023/10/23 02:38:42;;;;;;;1.75;0.90;;;10.30;90.80;;;;;;5011780;28;20034;-77
2023/10/23 02:41:08;;;;;;;1.10;0.85;;;10.30;91.10;;;;;;4978214;28;20034;-77
2023/10/23 02:43:33;;;;;;;0.95;0.77;;;10.40;90.90;;;;;;4993901;28;20056;-77
2023/10/23 02:46:01;;;;;;;0.80;0.75;;;10.30;90.80;;;;;;4993279;28;20177;-77
2023/10/23 02:48:27;;;;;;;1.13;0.90;;;10.40;90.90;;;;;;4976923;28;20035;-76
2023/10/23 02:50:53;;;;;;;0.60;0.60;;;10.30;90.80;;;;;;5011697;28;20204;-77
2023/10/23 02:53:19;;;;;;;1.35;0.90;;;10.40;90.90;;;;;;4993377;28;20034;-77
2023/10/23 02:55:45;;;;;;;0.60;0.50;;;10.30;90.90;;;;;;4962226;28;20045;-77
2023/10/23 02:58:10;;;;;;;0.98;0.77;;;10.40;91.00;;;;;;4995938;28;20054;-77
2023/10/23 03:00:37;;;;;;;0.68;0.68;;;10.30;91.00;;;;;;4997201;28;20100;-78
2023/10/23 03:03:02;;;;;;;0.70;0.68;;;10.30;91.00;;;;;;4997324;28;20192;-77
2023/10/23 03:05:28;;;;;;;0.60;0.60;;;10.20;91.00;;;;;;4997911;28;20533;-78
2023/10/23 03:07:54;;;;;;;1.00;0.90;;;10.30;91.10;;;;;;4997182;28;20026;-77
2023/10/23 03:10:20;;;;;;;0.90;0.75;;;10.30;91.10;;;;;;4997315;28;20042;-77
2023/10/23 03:12:45;;;;;;;0.82;0.80;;;10.30;91.10;;;;;;5012398;28;20096;-77
2023/10/23 03:15:11;;;;;;;0.82;0.82;;;10.30;91.10;;;;;;4995628;28;20030;-76
2023/10/23 03:17:37;;;;;;;1.25;0.90;;;10.30;91.10;;;;;;5015043;28;20116;-77
2023/10/23 03:20:03;;;;;;;2.03;1.00;;;10.30;91.10;;;;;;4996311;28;20125;-76
2023/10/23 03:22:29;;;;;;;0.80;0.75;;;10.30;91.10;;;;;;4997331;28;20490;-76
2023/10/23 03:24:55;;;;;;;1.38;0.90;;;10.30;91.10;;;;;;4995035;28;20146;-77
2023/10/23 03:27:21;;;;;;;1.42;0.95;;;10.40;91.10;;;;;;4980855;28;20401;-77
2023/10/23 03:29:46;;;;;;;0.82;0.70;;;10.30;91.00;;;;;;4996960;28;20036;-77
2023/10/23 03:32:12;;;;;;;0.90;0.85;;;10.40;91.10;;;;;;4980508;28;20042;-77
2023/10/23 03:34:38;;;;;;;0.88;0.73;;;10.40;91.10;;;;;;5015196;28;20496;-76
2023/10/23 03:37:04;;;;;;;0.80;0.80;;;10.40;91.10;;;;;;5014370;28;20037;-77
2023/10/23 03:39:30;;;;;;;0.88;0.77;;;10.30;91.00;;;;;;4996688;28;20385;-77
2023/10/23 03:41:56;;;;;;;0.60;0.60;;;10.40;91.00;;;;;;4980837;28;20121;-77
2023/10/23 03:44:21;;;;;;;1.00;0.90;;;10.40;91.00;;;;;;5014819;28;20117;-77
2023/10/23 03:46:47;;;;;;;0.82;0.60;;;10.50;91.10;;;;;;4979431;28;20081;-77
2023/10/23 03:49:13;;;;;;;0.98;0.70;;;10.40;91.00;;;;;;5011232;28;20030;-77
2023/10/23 03:51:38;;;;;;;1.15;0.90;;;10.50;91.10;;;;;;4996518;28;20497;-77
2023/10/23 03:54:04;;;;;;;1.00;0.70;;;10.50;91.10;;;;;;5014675;28;20481;-76
2023/10/23 03:56:30;;;;;;;0.73;0.73;;;10.50;91.00;;;;;;5013429;28;20040;-77
2023/10/23 03:58:55;;;;;;;0.85;0.75;;;10.50;91.00;;;;;;4996532;28;20057;-77
2023/10/23 04:01:21;;;;;;;0.60;0.60;;;10.50;91.00;;;;;;5009780;28;20040;-76
2023/10/23 04:03:47;;;;;;;0.90;0.73;;;10.50;91.00;;;;;;5014646;28;20138;-77
2023/10/23 04:06:13;;;;;;;1.17;0.90;;;10.50;91.00;;;;;;5012774;28;20591;-76
2023/10/23 04:08:38;;;;;;;0.90;0.80;;;10.60;91.10;;;;;;4979709;28;20556;-77
2023/10/23 04:11:04;;;;;;;1.25;0.90;;;10.60;91.10;;;;;;4997147;28;20033;-76
2023/10/23 04:13:30;;;;;;;1.20;0.98;;;10.60;91.10;;;;;;4980405;28;20049;-76
2023/10/23 04:15:57;;;;;;;1.20;0.80;;;10.50;91.10;;;;;;5014521;28;20030;-77
2023/10/23 04:18:25;;;;;;;0.70;0.60;;;10.60;91.10;;;;;;4984353;28;20061;-76
2023/10/23 04:21:00;;;;;;;1.08;0.90;;;10.50;91.10;;;;;;4993122;28;20038;-76
2023/10/23 04:23:26;;;;;;;0.73;0.60;;;10.50;91.10;;;;;;5005303;28;20081;-77
2023/10/23 04:25:56;;;;;;;0.90;0.80;;;10.50;91.10;;;;;;5014194;28;20034;-77
2023/10/23 04:28:22;;;;;;;0.50;0.50;;;10.50;91.10;;;;;;4976817;28;20026;-76
2023/10/23 04:30:48;;;;;;;1.38;0.70;;;10.50;91.10;;;;;;5009431;28;20040;-77
2023/10/23 04:33:21;;;;;;;0.77;0.73;;;10.60;91.10;;;;;;4996149;28;20038;-76
2023/10/23 04:35:49;;;;;;;0.68;0.60;;;10.50;91.40;;;;;;5012389;28;20129;-77
2023/10/23 04:38:14;;;;;;;0.50;0.50;;;10.50;91.10;;;;;;4979065;28;20049;-77
2023/10/23 04:40:42;;;;;;;0.80;0.80;;;10.60;91.20;;;;;;5013715;28;20041;-77
2023/10/23 04:43:08;;;;;;;1.15;0.82;;;10.60;91.20;;;;;;4978484;28;20038;-77
2023/10/23 04:45:35;;;;;;;0.70;0.60;;;10.60;91.20;;;;;;5011310;28;20475;-77
2023/10/23 04:48:00;;;;;;;0.60;0.60;;;10.60;91.20;;;;;;4976563;28;20041;-77
2023/10/23 04:50:26;;;;;;;0.95;0.80;;;10.50;91.20;;;;;;5013709;28;20030;-77
2023/10/23 04:52:52;;;;;;;0.93;0.80;;;10.60;91.20;;;;;;4995941;28;20037;-77
2023/10/23 04:55:17;;;;;;;0.93;0.70;;;10.50;91.20;;;;;;5011869;28;20038;-77
2023/10/23 04:57:43;;;;;;;0.40;0.40;;;10.50;91.20;;;;;;4995279;28;20035;-76
2023/10/23 05:00:11;;;;;;;0.65;0.65;;;10.50;91.20;;;;;;5011056;28;20042;-76
2023/10/23 05:02:37;;;;;;;0.73;0.70;;;10.50;91.30;;;;;;4979233;28;20133;-76
2023/10/23 05:05:05;;;;;;;0.68;0.68;;;10.50;91.30;;;;;;4979716;28;20122;-77
2023/10/23 05:07:30;;;;;;;0.57;0.55;;;10.50;91.30;;;;;;4994175;28;20043;-75
2023/10/23 05:09:56;;;;;;;0.80;0.70;;;10.50;91.30;;;;;;4994684;28;20445;-75
2023/10/23 05:12:22;;;;;;;0.75;0.65;;;10.50;91.40;;;;;;4978671;28;20069;-76
2023/10/23 05:14:47;;;;;;;0.70;0.70;;;10.40;91.30;;;;;;4994396;28;20042;-76
2023/10/23 05:17:15;;;;;;;0.75;0.63;;;10.50;91.30;;;;;;5012188;28;20045;-75
2023/10/23 05:19:41;;;;;;;1.08;0.82;;;10.40;91.30;;;;;;4978704;28;20128;-75
2023/10/23 05:22:07;;;;;;;0.73;0.73;;;10.40;91.30;;;;;;4997400;28;20050;-74
2023/10/23 05:24:32;;;;;;;1.10;0.85;;;10.50;91.40;;;;;;5015819;28;20044;-75
2023/10/23 05:26:59;;;;;;;0.93;0.60;;;10.50;91.40;;;;;;5012821;28;20500;-76
2023/10/23 05:29:25;;;;;;;0.82;0.70;;;10.50;91.40;;;;;;4994686;28;20034;-75
2023/10/23 05:31:51;;;;;;;1.25;0.80;;;10.60;91.40;;;;;;4979108;28;20544;-75
2023/10/23 05:34:16;;;;;;;1.13;0.73;;;10.50;91.40;;;;;;4977456;28;20034;-75
2023/10/23 05:36:42;;;;;;;0.77;0.77;;;10.50;91.40;;;;;;4994108;28;20035;-75
2023/10/23 05:39:08;;;;;;;0.98;0.77;;;10.50;91.40;;;;;;5010742;28;20033;-75
2023/10/23 05:41:33;;;;;;;0.70;0.70;;;10.50;91.40;;;;;;4993644;28;20042;-75
2023/10/23 05:43:59;;;;;;;0.68;0.68;;;10.50;91.30;;;;;;4994993;28;20049;-75
2023/10/23 05:46:25;;;;;;;0.63;0.60;;;10.50;91.30;;;;;;4995056;28;20057;-75
2023/10/23 05:48:50;;;;;;;0.60;0.60;;;10.50;91.30;;;;;;4997250;28;20034;-75
2023/10/23 05:51:16;;;;;;;1.00;0.80;;;10.50;91.30;;;;;;4982161;28;20026;-75
2023/10/23 05:53:42;;;;;;;0.80;0.80;;;10.50;91.30;;;;;;5015252;28;20092;-77
2023/10/23 05:56:08;;;;;;;0.85;0.70;;;10.50;91.30;;;;;;4961697;28;20038;-77
2023/10/23 05:58:35;;;;;;;1.17;0.80;;;10.60;91.40;;;;;;4979273;28;20029;-77
2023/10/23 06:01:08;;;;;;;0.95;0.85;;;10.50;91.40;;;;;;5012775;28;20486;-81
2023/10/23 06:03:34;;;;;;;1.02;0.90;;;10.60;91.40;;;;;;5010788;28;20405;-82
2023/10/23 06:06:01;;;;;;;0.82;0.65;;;10.50;91.30;;;;;;5018113;28;20034;-79
2023/10/23 06:08:27;;;;;;;0.90;0.70;;;10.50;91.30;;;;;;5015537;28;20030;-80
2023/10/23 06:10:53;;;;;;;1.00;0.70;;;10.60;91.30;;;;;;4978012;28;20086;-80
2023/10/23 06:13:20;;;;;;;1.05;0.70;;;10.50;91.30;;;;;;4978759;28;20176;-80
2023/10/23 06:15:47;;;;;;;1.27;0.88;;;10.60;91.40;;;;;;4994675;28;20038;-80
2023/10/23 06:18:13;;;;;;;0.60;0.60;;;10.60;91.30;;;;;;4978503;28;20129;-80
2023/10/23 06:20:39;;;;;;;1.05;0.88;;;10.60;91.40;;;;;;4994585;28;20037;-79
2023/10/23 06:23:04;;;;;;;1.08;0.80;;;10.60;91.40;;;;;;5010777;28;20061;-79
2023/10/23 06:25:31;;;;;;;0.80;0.70;;;10.60;91.40;;;;;;4978597;28;20038;-80
2023/10/23 06:28:01;;;;;;;0.90;0.80;;;10.60;91.40;;;;;;4978034;28;20037;-80
2023/10/23 06:30:33;;;;;;;0.70;0.60;;;10.60;91.40;;;;;;5010461;28;20042;-79
2023/10/23 06:32:59;;;;;;;1.13;0.68;;;10.60;91.40;;;;;;4970709;28;20039;-79
2023/10/23 06:35:25;;;;;;;1.33;0.70;;;10.60;91.40;;;;;;4970622;28;20035;-79
2023/10/23 06:37:51;;;;;;;0.60;0.60;;;10.60;91.40;;;;;;4954619;28;20041;-79
2023/10/23 06:40:20;;;;;;;0.85;0.65;;;10.60;91.40;;;;;;4956560;28;20057;-78
2023/10/23 06:42:49;;;;;;;0.68;0.68;;;10.60;91.40;;;;;;4957139;28;20093;-78
2023/10/23 06:45:17;;;;;;;0.95;0.65;;;10.60;91.40;;;;;;4899196;29;20032;-78
2023/10/23 06:47:54;;;;;;;0.75;0.75;;;10.60;91.40;;;;;;4884335;29;20045;-78
2023/10/23 06:50:23;;;;;;;0.68;0.60;;;10.50;91.40;;;;;;4847934;29;20162;-78
2023/10/23 06:52:51;;;;;;;1.13;0.70;;;10.50;91.40;;;;;;4838601;29;20050;-77
2023/10/23 06:55:18;;;;;;;0.80;0.68;;;10.60;91.50;;;;;;4801954;29;20498;-77
2023/10/23 06:57:46;;;;;;;0.60;0.60;;;10.50;91.40;;;;;;4815194;29;20134;-78
2023/10/23 07:00:14;;;;;;;0.75;0.60;;;10.50;91.50;;;;;;4820533;29;20038;-78
2023/10/23 07:02:40;;;;;;;0.70;0.70;;;10.50;91.50;;;;;;4805388;29;20545;-77
2023/10/23 07:05:06;;;;;;;0.40;0.40;;;10.60;91.60;;;;;;4837914;29;20133;-77
2023/10/23 07:07:32;;;;;;;0.80;0.55;;;10.50;91.60;;;;;;4823458;29;20121;-77
2023/10/23 07:09:59;;;;;;;0.57;0.57;;;10.50;91.50;;;;;;4839190;29;20510;-78
2023/10/23 07:12:31;;;;;;;1.33;0.70;;;10.50;91.50;;;;;;4823263;29;20053;-78
2023/10/23 07:14:57;;;;;;;0.50;0.50;;;10.50;91.60;;;;;;4838180;29;20414;-79
2023/10/23 07:17:28;;;;;;;0.60;0.60;;;10.40;91.60;;;;;;4892123;29;20040;-78
2023/10/23 07:20:29;;;;;;;0.75;0.60;;;10.40;91.60;;;;;;4893043;29;20413;-78
2023/10/23 07:22:58;;;;;;;0.82;0.60;;;10.50;91.60;;;;;;4935908;28;20109;-78
2023/10/23 07:25:27;;;;;;;0.73;0.73;;;10.50;91.60;;;;;;4953126;28;20047;-79
2023/10/23 07:28:10;;;;;;;0.50;0.50;;;10.50;91.60;;;;;;4947975;29;20032;-79
2023/10/23 07:30:56;;;;;;;0.40;0.40;;;10.50;91.60;;;;;;4941872;28;20032;-79
2023/10/23 07:33:38;;;;;;;0.70;0.60;;;10.50;91.60;;;;;;4962211;28;20050;-79
2023/10/23 07:36:10;;;;;;;0.50;0.50;;;10.40;91.80;;;;;;4953970;28;20409;-78
2023/10/23 07:38:46;;;;;;;1.02;0.60;;;10.40;91.60;;;;;;4937713;28;20062;-79
2023/10/23 07:41:54;;;;;;;0.63;0.60;;;10.50;91.60;;;;;;4923092;29;20046;-79
2023/10/23 07:47:37;;;;;;;0.70;0.68;;;10.60;91.60;;;;;;4836478;29;20049;-79
2023/10/23 07:50:32;;;;;;;0.65;0.50;;;10.60;91.60;;;;;;4858247;29;20523;-80
2023/10/23 07:53:01;;;;;;;0.68;0.60;;;10.60;91.60;;;;;;4858611;29;20037;-78
2023/10/23 07:56:13;;;;;;;0.70;0.70;;;10.60;91.50;;;;;;4843579;29;20041;-78
2023/10/23 08:02:10;;;;;;;0.50;0.50;;;10.70;91.50;;;;;;4851064;29;20423;-81
2023/10/23 08:08:07;;;;;;;0.80;0.63;;;10.70;91.40;;;;;;4895367;29;20108;-79
2023/10/23 08:11:17;;;;;;;0.80;0.70;;;10.70;91.40;;;;;;4851138;29;20050;-79
2023/10/23 08:13:54;;;;;;;0.77;0.68;;;10.70;91.40;;;;;;4828109;29;20043;-79
2023/10/23 08:16:23;;;;;;;1.05;0.63;;;10.70;91.40;;;;;;4790201;29;20531;-79
2023/10/23 08:18:48;;;;;;;0.68;0.68;;;10.80;91.40;;;;;;4791199;29;20070;-78
2023/10/23 08:21:16;;;;;;;0.90;0.60;;;10.80;91.40;;;;;;4825494;29;20491;-77
2023/10/23 08:23:59;;;;;;;0.93;0.80;;;10.80;91.40;;;;;;4825982;29;20579;-77
2023/10/23 08:26:34;;;;;;;0.73;0.70;;;10.80;91.40;;;;;;4821000;29;20530;-78
2023/10/23 08:29:02;;;;;;;0.50;0.50;;;10.70;91.40;;;;;;4836026;29;20042;-78
2023/10/23 08:31:30;;;;;;;1.00;0.70;;;10.80;91.50;;;;;;4840017;29;20555;-78
2023/10/23 08:33:56;;;;;;;0.80;0.80;;;10.80;91.50;;;;;;4824970;29;20058;-78
2023/10/23 08:36:22;;;;;;;1.35;0.90;;;10.80;91.50;;;;;;4842979;29;20162;-78
2023/10/23 08:38:48;;;;;;;1.27;0.60;;;10.80;91.50;;;;;;4848714;29;20402;-77
2023/10/23 08:41:14;;;;;;;0.77;0.60;;;10.80;91.50;;;;;;4881974;29;20068;-78
2023/10/23 08:43:40;;;;;;;1.17;0.93;;;10.80;91.50;;;;;;4924894;29;20051;-78
2023/10/23 08:46:08;;;;;;;0.95;0.70;;;10.90;91.50;;;;;;4902289;29;20031;-78
2023/10/23 08:48:36;;;;;;;1.10;0.80;;;10.90;91.50;;;;;;4902950;29;20039;-78
2023/10/23 08:51:03;;;;;;;1.05;0.90;;;11.00;91.50;;;;;;4934865;28;20125;-80
2023/10/23 08:53:40;;;;;;;1.45;1.05;;;11.00;91.40;;;;;;4958073;28;20597;-80
2023/10/23 08:56:07;;;;;;;1.98;1.00;;;11.00;91.40;;;;;;4901905;29;20037;-79
2023/10/23 08:59:06;;;;;;;1.85;0.80;;;11.00;91.40;;;;;;4917308;28;20144;-78
2023/10/23 09:01:45;;;;;;;2.03;1.10;;;11.10;91.40;;;;;;4936625;29;20035;-79
2023/10/23 09:04:47;;;;;;;1.08;0.80;;;11.10;91.40;;;;;;4935767;29;20126;-78
2023/10/23 09:07:20;;;;;;;0.95;0.77;;;11.10;91.40;;;;;;4936176;29;20035;-79
2023/10/23 09:09:49;;;;;;;1.42;0.73;;;11.10;91.40;;;;;;4937095;29;20047;-79
2023/10/23 09:12:33;;;;;;;1.27;1.00;;;11.10;91.40;;;;;;4936281;29;20511;-79
2023/10/23 09:15:21;;;;;;;1.10;1.00;;;11.10;91.70;;;;;;4936776;29;20077;-79
2023/10/23 09:17:49;;;;;;;1.25;1.00;;;11.20;91.40;;;;;;4951003;28;20051;-79
2023/10/23 09:20:42;;;;;;;2.13;1.25;;;11.20;91.40;;;;;;4936604;29;20081;-79
2023/10/23 09:23:54;;;;;;;1.50;1.00;;;11.30;91.30;;;;;;4932798;29;20043;-79
2023/10/23 09:26:30;;;;;;;1.05;0.90;;;11.30;91.40;;;;;;4875097;29;20052;-79
2023/10/23 09:33:14;;;;;;;1.10;1.00;;;11.30;91.30;;;;;;4870140;29;20053;-80
2023/10/23 09:36:08;;;;;;;1.15;0.90;;;11.40;91.30;;;;;;4859880;29;20182;-80
2023/10/23 09:39:14;;;;;;;1.08;0.93;;;11.60;91.30;;;;;;4820627;29;20099;-79
2023/10/23 09:41:53;;;;;;;1.23;0.93;;;11.60;91.20;;;;;;4768134;30;20036;-79
2023/10/23 09:44:52;;;;;;;1.05;0.80;;;11.70;91.10;;;;;;4751490;23;20061;31
2023/10/23 09:47:29;;;;;;;0.80;0.80;;;11.70;91.10;;;;;;5019135;28;20053;-79
2023/10/23 09:50:11;;;;;;;1.33;0.80;;;11.80;91.10;;;;;;4940970;29;20055;-79
2023/10/23 09:56:18;;;;;;;1.63;1.20;;;12.00;90.90;;;;;;4837977;29;20046;-80
2023/10/23 09:58:58;;;;;;;2.08;1.40;;;12.10;90.90;;;;;;4807516;29;20145;-80
2023/10/23 10:01:54;;;;;;;1.45;1.10;;;12.10;91.20;;;;;;4834919;29;20561;-79
2023/10/23 10:04:41;;;;;;;1.98;1.45;;;12.20;90.90;;;;;;4796979;29;20122;-78
2023/10/23 10:07:34;;;;;;;2.08;1.42;;;12.20;90.90;;;;;;4813981;29;20081;-79
2023/10/23 10:10:07;;;;;;;1.48;1.27;;;12.30;90.80;;;;;;4748088;30;20036;-79
2023/10/23 10:17:22;;;;;;;2.35;1.40;;;12.40;90.80;;;;;;4699373;30;20117;-79
2023/10/23 10:42:04;;;;;;;1.80;1.17;;;12.90;90.50;;;;;;4780118;30;20170;-79
2023/10/23 10:45:13;;;;;;;1.60;1.13;;;13.00;90.40;;;;;;4782775;29;20051;-79
2023/10/23 10:47:44;;;;;;;1.55;1.15;;;13.10;90.50;;;;;;4843386;29;20379;-77
2023/10/23 10:50:38;;;;;;;1.75;1.20;;;13.10;90.40;;;;;;4867171;29;20040;-77
2023/10/23 10:56:54;;;;;;;1.35;1.23;;;13.20;90.40;;;;;;4828746;29;20538;-78
2023/10/23 10:59:26;;;;;;;2.38;1.60;;;13.20;90.40;;;;;;4818339;29;20046;-78
2023/10/23 11:01:56;;;;;;;1.38;1.17;;;13.40;90.40;;;;;;4820762;29;20110;-78
2023/10/23 11:04:50;;;;;;;2.90;1.50;;;13.40;90.40;;;;;;4819534;29;20058;-78
2023/10/23 11:11:32;;;;;;;2.00;1.20;;;13.30;90.30;;;;;;4836765;29;20068;-77
2023/10/23 11:14:48;;;;;;;1.70;1.20;;;13.50;90.30;;;;;;4800902;29;20050;-78
2023/10/23 11:17:32;;;;;;;2.28;1.30;;;13.50;90.30;;;;;;4768479;30;20524;-78
2023/10/23 11:23:21;;;;;;;2.00;1.35;;;13.70;90.30;;;;;;4817516;29;20141;-78
2023/10/23 11:26:25;;;;;;;1.77;1.35;;;13.70;90.20;;;;;;4894367;29;20492;-80
2023/10/23 11:29:29;;;;;;;1.95;1.40;;;13.80;90.20;;;;;;4837647;29;20069;-79
2023/10/23 11:32:57;;;;;;;2.33;1.48;;;13.90;90.20;;;;;;4836218;29;20078;-79
2023/10/23 11:42:55;;;;;;;2.80;1.50;;;14.00;90.10;;;;;;4839149;29;20134;-77
2023/10/23 11:45:27;;;;;;;2.67;1.40;;;14.10;90.10;;;;;;4831318;29;20105;-77
2023/10/23 11:48:01;;;;;;;1.88;1.40;;;14.30;90.10;;;;;;4825506;29;20099;-77
2023/10/23 11:50:42;;;;;;;1.98;1.50;;;14.20;90.00;;;;;;4806340;29;20054;-76
2023/10/23 11:53:08;;;;;;;2.22;1.60;;;14.10;90.00;;;;;;4856162;29;20042;-76
2023/10/23 11:55:36;;;;;;;2.53;1.60;;;14.20;90.00;;;;;;4825653;29;20046;-76
2023/10/23 11:58:04;;;;;;;2.45;1.50;;;14.20;90.00;;;;;;4825922;29;20041;-77
2023/10/23 12:00:34;;;;;;;3.80;1.95;;;14.30;90.00;;;;;;4824048;29;20167;-76
2023/10/23 12:02:59;;;;;;;3.83;1.85;;;14.30;90.00;;;;;;4858147;29;20452;-76
2023/10/23 12:05:25;;;;;;;2.90;1.70;;;14.30;90.00;;;;;;4914236;29;20052;-77
2023/10/23 12:07:55;;;;;;;2.67;1.50;;;14.40;90.00;;;;;;4894050;29;20091;-77
2023/10/23 12:11:14;;;;;;;2.75;1.80;;;14.50;90.00;;;;;;4908812;29;20505;-79
2023/10/23 12:14:06;;;;;;;1.77;1.38;;;14.40;90.00;;;;;;4877132;29;20041;-77
2023/10/23 12:17:08;;;;;;;1.83;1.48;;;14.50;90.00;;;;;;4882877;29;20045;-77
2023/10/23 12:26:23;;;;;;;1.70;1.08;;;14.70;89.70;;;;;;4839667;29;20106;-77
2023/10/23 12:32:40;;;;;;;2.08;1.30;;;14.70;89.60;;;;;;4803049;29;20103;-78
2023/10/23 12:35:32;;;;;;;1.25;0.77;;;14.70;89.50;;;;;;4784619;30;20075;-78
2023/10/23 12:37:58;;;;;;;2.17;1.10;;;14.70;89.50;;;;;;4791943;29;20138;-77
2023/10/23 12:40:24;;;;;;;1.67;1.00;;;14.70;89.40;;;;;;4785919;30;20170;-78
2023/10/23 12:42:49;;;;;;;1.63;0.80;;;14.60;89.40;;;;;;4786195;30;20063;-77
2023/10/23 12:45:16;;;;;;;1.60;1.15;;;14.60;89.50;;;;;;4785982;30;20046;-77
2023/10/23 12:47:41;;;;;;;0.65;0.60;;;14.60;89.60;;;;;;4798363;29;20039;-77
2023/10/23 12:50:10;;;;;;;2.75;1.00;;;14.60;89.60;;;;;;4823182;29;20447;-78
2023/10/23 12:52:38;;;;;;;1.10;0.75;;;14.60;89.50;;;;;;4858715;29;20057;-78
2023/10/23 12:59:04;;;;;;;1.48;0.60;;;14.70;89.50;;;;;;4827693;29;20136;-80
2023/10/23 13:01:30;;;;;;;0.82;0.70;;;14.80;89.50;;;;;;4848449;29;20069;-78
2023/10/23 13:03:59;;;;;;;0.68;0.68;;;14.80;89.40;;;;;;4849749;29;20057;-79
2023/10/23 13:07:10;;;;;;;0.70;0.70;;;14.80;89.40;;;;;;4843490;29;20117;-78
2023/10/23 13:09:40;;;;;;;2.22;0.80;;;14.80;89.30;;;;;;4860229;29;20080;-77
2023/10/23 13:15:59;;;;;;;1.15;0.82;;;14.80;89.20;;;;;;4819592;29;20040;-76
2023/10/23 13:18:25;;;;;;;1.27;0.65;;;14.80;89.20;;;;;;4787166;29;20188;-75
2023/10/23 13:20:51;;;;;;;0.80;0.70;;;14.90;89.30;;;;;;4798982;29;20049;-75
2023/10/23 13:23:17;;;;;;;1.33;0.80;;;14.90;89.20;;;;;;4773391;29;20051;-76
2023/10/23 13:26:25;;;;;;;1.40;0.70;;;14.90;89.80;;;;;;4788517;29;20050;-79
2023/10/23 13:32:26;;;;;;;1.95;0.80;;;14.80;89.20;;;;;;4679948;30;20054;-78
2023/10/23 13:34:57;;;;;;;1.67;0.60;;;14.80;89.10;;;;;;4674491;30;20146;-77
2023/10/23 13:37:25;;;;;;;;;;;14.80;89.10;;;;;;4695659;30;20072;-76
2023/10/23 13:40:42;;;;;;;1.75;0.82;;;14.90;89.20;;;;;;4718734;30;19926;-79
2023/10/23 13:43:11;;;;;;;1.60;0.85;;;14.80;89.10;;;;;;4757199;30;20059;-78
2023/10/23 13:45:45;;;;;;;1.73;0.70;;;14.80;89.10;;;;;;4713999;30;20984;-78
2023/10/23 13:48:30;;;;;;;1.65;0.68;;;14.80;89.20;;;;;;4748185;30;20076;-78
2023/10/23 13:54:52;;;;;;;1.00;0.70;;;14.80;89.30;;;;;;4790485;29;20135;-79
2023/10/23 13:57:18;;;;;;;0.98;0.60;;;14.90;89.30;;;;;;4759300;30;20127;-75
2023/10/23 13:59:47;;;;;;;1.20;0.50;;;14.90;89.30;;;;;;4748738;30;20572;-76
2023/10/23 14:02:16;;;;;;;1.50;0.80;;;14.80;89.30;;;;;;4743480;29;20035;-75
2023/10/23 14:04:43;;;;;;;1.67;0.77;;;14.70;89.20;;;;;;4789048;29;20050;-76
2023/10/23 14:07:38;;;;;;;0.70;0.55;;;14.70;89.30;;;;;;4826635;29;20057;-77
2023/10/23 14:10:33;;;;;;;0.77;0.55;;;14.70;89.30;;;;;;4806923;29;20046;-78
2023/10/23 14:13:01;;;;;;;0.60;0.60;;;14.80;89.40;;;;;;4804782;29;20054;-78
2023/10/23 14:15:27;;;;;;;1.13;0.75;;;14.80;89.40;;;;;;4767459;30;20056;-77
2023/10/23 14:20:58;;;;;;;1.08;0.75;;;14.70;89.40;;;;;;4706512;30;20132;-78
2023/10/23 14:23:40;;;;;;;0.75;0.75;;;14.70;89.50;;;;;;4688427;30;20056;-78
2023/10/23 14:26:11;;;;;;;0.57;0.57;;;14.70;89.50;;;;;;4691494;30;20042;-78
2023/10/23 14:28:47;;;;;;;1.90;0.88;;;14.70;89.50;;;;;;4700892;30;20569;-78
2023/10/23 14:31:42;;;;;;;1.02;0.90;;;14.70;89.60;;;;;;4725820;30;20511;-78
2023/10/23 14:34:47;;;;;;;1.98;1.00;;;14.70;89.60;;;;;;4735910;30;20053;-77
2023/10/23 14:38:04;;;;;;;0.52;0.52;;;14.60;89.60;;;;;;4739067;30;20056;-78
2023/10/23 14:40:48;;;;;;;0.90;0.80;;;14.70;89.60;;;;;;4752473;30;20139;-78
2023/10/23 14:43:28;;;;;;;1.00;0.70;;;14.70;89.60;;;;;;4720945;30;20178;-76